Main page
METAR-TAF:

METAR-TAF

Airports :

Sheridan County Airport

Sheridan, Wyoming, United States

latitude: 44-46-10N, longitude: 106-58-08W, elevation: 4018 ft

Current weather observation

The report was made 1 hour and 4 minutes ago, at 11:53 UTC
Calm wind
Temperature 1°F
Humidity 65%
Pressure 30.10 in. Hg
Visibility: 10 miles
Clear sky

METAR: KSHR 031153Z AUTO 00000KT 10SM CLR M17/M22 A3010 RMK AO2 SLP274 70011 T11721217 11122 21194 56001

Time: 05:57 (12:57 UTC)

Forecast

The report was made 1 hour and 26 minutes ago, at 11:31 UTC
Forecast valid from 03 at 12 UTC to 04 at 12 UTC
Wind 7 mph from variable directions
Visibility: 6 miles
Clear sky

TAF: KSHR 031131Z 0312/0412 VRB06KT P6SM SKC

Weather observations and forecasts of more than 4000 airports (METAR and TAF reports).

The available stations are represented by yellow and red dots on the map.

Hover mouse over dot to see the name of the station.

Then click to see weather observations and forecasts.

To change the map : click on the green buttons with a black cross to zoom in, on the green button with a dash to zoom out, or on the green arrows for adjacent maps.


METAR-TAF: